createdAt,value
2023-03-17T00:00:47.993Z,100322.79
2023-03-17T00:03:27.040Z,100328.39
2023-03-17T00:05:55.191Z,100328.54
2023-03-17T00:08:25.242Z,100331.23
2023-03-17T00:10:55.215Z,100329.10
2023-03-17T00:13:24.018Z,100329.82
2023-03-17T00:15:54.792Z,100331.67
2023-03-17T00:18:30.442Z,100336.83
2023-03-17T00:21:05.737Z,100337.95
2023-03-17T00:23:35.388Z,100337.80
2023-03-17T00:26:03.706Z,100338.10
2023-03-17T00:28:35.018Z,100341.32
2023-03-17T00:31:11.803Z,100335.48
2023-03-17T00:33:40.779Z,100337.63
2023-03-17T00:36:11.229Z,100337.18
2023-03-17T00:38:39.903Z,100341.30
2023-03-17T00:41:10.141Z,100338.54
2023-03-17T00:43:40.778Z,100342.02
2023-03-17T00:46:35.707Z,100341.23
2023-03-17T00:49:22.970Z,100341.14
2023-03-17T00:51:51.419Z,100347.72
2023-03-17T00:54:20.954Z,100350.44
2023-03-17T00:56:49.626Z,100350.91
2023-03-17T00:59:21.747Z,100347.34
2023-03-17T01:01:51.197Z,100346.36
2023-03-17T01:04:20.055Z,100349.11
2023-03-17T01:06:48.621Z,100344.68
2023-03-17T01:09:18.679Z,100346.75
2023-03-17T01:11:47.147Z,100342.67
2023-03-17T01:14:16.890Z,100348.12
2023-03-17T01:16:45.674Z,100350.15
2023-03-17T01:19:14.203Z,100353.88
2023-03-17T01:21:42.903Z,100352.75
2023-03-17T01:24:12.918Z,100351.02
2023-03-17T01:26:41.694Z,100352.41
2023-03-17T01:29:09.848Z,100355.67
2023-03-17T01:31:38.094Z,100357.28
2023-03-17T01:34:10.322Z,100360.39
2023-03-17T01:36:38.629Z,100359.14
2023-03-17T01:39:07.500Z,100359.86
2023-03-17T01:42:01.313Z,100362.05
2023-03-17T01:44:29.737Z,100363.64
2023-03-17T01:47:01.219Z,100359.73
2023-03-17T01:49:33.200Z,100359.23
2023-03-17T01:52:06.142Z,100360.95
2023-03-17T01:54:38.760Z,100358.40
2023-03-17T01:57:10.676Z,100363.56
2023-03-17T01:59:42.615Z,100364.98
2023-03-17T02:02:11.724Z,100365.70
2023-03-17T02:04:40.929Z,100365.88
2023-03-17T02:07:10.356Z,100367.29
2023-03-17T02:09:43.940Z,100368.61
2023-03-17T02:12:15.388Z,100372.88
2023-03-17T02:14:44.374Z,100378.55
2023-03-17T02:17:19.131Z,100378.73
2023-03-17T02:19:47.794Z,100386.63
2023-03-17T02:22:17.257Z,100392.54
2023-03-17T02:24:55.820Z,100401.27
2023-03-17T02:27:35.902Z,100405.59
2023-03-17T02:30:06.783Z,100407.79
2023-03-17T02:32:36.798Z,100413.87
2023-03-17T02:35:10.326Z,100416.05
2023-03-17T02:37:39.079Z,100416.98
2023-03-17T02:40:08.286Z,100416.95
2023-03-17T02:42:39.448Z,100415.51
2023-03-17T02:45:09.117Z,100418.58
2023-03-17T02:47:42.867Z,100418.50
2023-03-17T02:50:23.032Z,100419.66
2023-03-17T02:52:51.351Z,100423.01
2023-03-17T02:55:19.721Z,100428.19
2023-03-17T02:57:47.809Z,100424.07
2023-03-17T03:00:21.764Z,100429.02
2023-03-17T03:02:50.809Z,100430.57
2023-03-17T03:05:23.955Z,100431.70
2023-03-17T03:07:53.381Z,100432.41
2023-03-17T03:10:21.843Z,100432.61
2023-03-17T03:12:53.349Z,100433.46
2023-03-17T03:15:23.229Z,100433.57
2023-03-17T03:17:51.575Z,100438.85
2023-03-17T03:20:21.948Z,100436.58
2023-03-17T03:22:53.184Z,100434.58
2023-03-17T03:25:22.092Z,100429.67
2023-03-17T03:27:50.906Z,100433.09
2023-03-17T03:30:19.402Z,100437.99
2023-03-17T03:32:47.908Z,100440.80
2023-03-17T03:35:17.003Z,100444.11
2023-03-17T03:37:50.243Z,100447.77
2023-03-17T03:40:18.772Z,100448.44
2023-03-17T03:42:46.878Z,100449.83
2023-03-17T03:45:15.735Z,100453.77
2023-03-17T03:47:44.199Z,100455.87
2023-03-17T03:50:16.112Z,100456.53
2023-03-17T03:52:45.878Z,100461.14
2023-03-17T03:55:14.057Z,100465.20
2023-03-17T03:57:42.869Z,100465.50
2023-03-17T04:00:14.182Z,100467.00
2023-03-17T04:02:45.119Z,100471.80
2023-03-17T04:05:14.722Z,100473.65
2023-03-17T04:07:46.083Z,100477.46
2023-03-17T04:10:15.825Z,100479.86
2023-03-17T04:12:44.200Z,100482.66
2023-03-17T04:15:16.946Z,100485.41
2023-03-17T04:17:45.320Z,100487.33
2023-03-17T04:20:14.395Z,100488.44
2023-03-17T04:22:42.746Z,100491.42
2023-03-17T04:25:12.159Z,100494.16
2023-03-17T04:27:41.226Z,100495.70
2023-03-17T04:30:13.603Z,100498.13
2023-03-17T04:32:41.886Z,100501.31
2023-03-17T04:35:18.309Z,100503.34
2023-03-17T04:37:49.341Z,100507.25
2023-03-17T04:40:17.887Z,100509.86
2023-03-17T04:42:47.142Z,100511.20
2023-03-17T04:45:16.795Z,100516.13
2023-03-17T04:47:46.436Z,100516.91
2023-03-17T04:50:15.379Z,100517.72
2023-03-17T04:52:45.148Z,100522.11
2023-03-17T04:55:13.414Z,100525.74
2023-03-17T04:57:41.698Z,100530.47
2023-03-17T05:00:13.071Z,100531.86
2023-03-17T05:02:41.813Z,100533.15
2023-03-17T05:05:13.743Z,100534.74
2023-03-17T05:07:42.695Z,100533.88
2023-03-17T05:10:12.449Z,100533.46
2023-03-17T05:12:41.792Z,100535.72
2023-03-17T05:15:11.685Z,100537.45
2023-03-17T05:17:39.746Z,100536.88
2023-03-17T05:20:10.746Z,100541.95
2023-03-17T05:22:39.746Z,100544.24
2023-03-17T05:25:09.228Z,100545.54
2023-03-17T05:27:37.828Z,100548.66
2023-03-17T05:30:06.743Z,100553.20
2023-03-17T05:32:36.750Z,100552.48
2023-03-17T05:35:06.239Z,100549.81
2023-03-17T05:37:34.401Z,100549.02
2023-03-17T05:40:03.117Z,100552.07
2023-03-17T05:42:31.475Z,100555.61
2023-03-17T05:45:02.265Z,100562.77
2023-03-17T05:47:35.804Z,100565.64
2023-03-17T05:50:04.932Z,100566.52
2023-03-17T05:52:34.815Z,100573.23
2023-03-17T05:55:04.844Z,100570.81
2023-03-17T05:57:33.009Z,100577.89
2023-03-17T06:00:00.984Z,100577.80
2023-03-17T06:02:29.575Z,100578.48
2023-03-17T06:04:58.042Z,100580.06
2023-03-17T06:07:41.142Z,100582.48
2023-03-17T06:10:12.775Z,100580.67
2023-03-17T06:12:40.824Z,100583.21
2023-03-17T06:15:10.916Z,100580.57
2023-03-17T06:17:39.491Z,100583.34
2023-03-17T06:20:12.094Z,100588.14
2023-03-17T06:22:51.612Z,100585.58
2023-03-17T06:25:28.991Z,100591.32
2023-03-17T06:27:57.923Z,100589.23
2023-03-17T06:30:27.856Z,100594.16
2023-03-17T06:33:01.475Z,100599.74
2023-03-17T06:35:31.059Z,100599.34
2023-03-17T06:38:00.834Z,100604.88
2023-03-17T06:40:29.958Z,100607.44
2023-03-17T06:42:58.716Z,100605.00
2023-03-17T06:45:37.516Z,100606.71
2023-03-17T06:48:07.150Z,100606.83
2023-03-17T06:50:35.381Z,100608.65
2023-03-17T06:53:05.434Z,100610.73
2023-03-17T06:55:34.731Z,100613.05
2023-03-17T06:58:07.097Z,100611.84
2023-03-17T07:00:38.383Z,100612.70
2023-03-17T07:03:06.858Z,100609.10
2023-03-17T07:05:35.671Z,100612.58
2023-03-17T07:08:04.014Z,100617.81
2023-03-17T07:13:17.794Z,100620.91
2023-03-17T07:15:46.232Z,100622.56
2023-03-17T07:18:20.500Z,100623.55
2023-03-17T07:20:49.630Z,100626.45
2023-03-17T07:23:20.474Z,100626.10
2023-03-17T07:25:49.014Z,100623.61
2023-03-17T07:28:21.891Z,100631.27
2023-03-17T07:30:53.127Z,100629.31
2023-03-17T07:33:21.904Z,100633.34
2023-03-17T07:35:51.164Z,100636.00
2023-03-17T07:38:19.927Z,100640.32
2023-03-17T07:40:49.091Z,100635.73
2023-03-17T07:43:19.288Z,100642.38
2023-03-17T07:45:48.340Z,100641.49
2023-03-17T07:48:19.000Z,100642.51
2023-03-17T07:50:50.778Z,100644.59
2023-03-17T07:53:21.022Z,100646.61
2023-03-17T07:55:49.450Z,100655.15
2023-03-17T07:58:21.947Z,100651.41
2023-03-17T08:00:53.291Z,100652.64
2023-03-17T08:03:22.923Z,100651.52
2023-03-17T08:05:53.438Z,100651.83
2023-03-17T08:08:27.322Z,100661.11
2023-03-17T08:11:03.881Z,100664.30
2023-03-17T08:13:33.945Z,100664.08
2023-03-17T08:16:02.051Z,100663.39
2023-03-17T08:18:31.087Z,100666.78
2023-03-17T08:20:59.308Z,100669.23
2023-03-17T08:23:27.924Z,100667.20
2023-03-17T08:25:58.077Z,100666.30
2023-03-17T08:28:26.126Z,100670.02
2023-03-17T08:30:54.873Z,100667.95
2023-03-17T08:33:23.611Z,100669.54
2023-03-17T08:35:51.939Z,100671.42
2023-03-17T08:38:20.864Z,100671.86
2023-03-17T08:40:50.687Z,100673.39
2023-03-17T08:43:18.810Z,100676.89
2023-03-17T08:45:48.267Z,100675.14
2023-03-17T08:48:17.190Z,100678.23
2023-03-17T08:50:45.329Z,100676.02
2023-03-17T08:53:14.380Z,100680.41
2023-03-17T08:55:44.115Z,100681.73
2023-03-17T08:58:12.236Z,100682.81
2023-03-17T09:00:41.279Z,100683.29
2023-03-17T09:03:09.686Z,100685.52
2023-03-17T09:05:38.696Z,100682.78
2023-03-17T09:08:09.445Z,100684.11
2023-03-17T09:10:37.902Z,100684.73
2023-03-17T09:13:09.191Z,100681.77
2023-03-17T09:15:38.949Z,100680.57
2023-03-17T09:18:07.503Z,100682.36
2023-03-17T09:20:37.253Z,100685.75
2023-03-17T09:23:08.151Z,100687.23
2023-03-17T09:25:37.313Z,100683.52
2023-03-17T09:28:07.376Z,100695.89
2023-03-17T09:30:35.796Z,100699.61
2023-03-17T09:33:05.130Z,100698.98
2023-03-17T09:35:34.421Z,100700.05
2023-03-17T09:38:02.656Z,100701.92
2023-03-17T09:40:33.711Z,100703.68
2023-03-17T09:43:32.371Z,100705.00
2023-03-17T09:46:14.493Z,100709.86
2023-03-17T09:48:59.658Z,100710.64
2023-03-17T09:51:43.251Z,100706.14
2023-03-17T09:54:15.534Z,100713.90
2023-03-17T09:56:47.489Z,100714.46
2023-03-17T09:59:42.316Z,100712.67
2023-03-17T10:02:18.029Z,100714.80
2023-03-17T10:04:48.170Z,100716.55
2023-03-17T10:07:19.499Z,100714.59
2023-03-17T10:10:05.190Z,100716.86
2023-03-17T10:13:17.705Z,100719.89
2023-03-17T10:16:03.899Z,100723.70
2023-03-17T10:19:14.156Z,100721.02
2023-03-17T10:21:48.488Z,100717.27
2023-03-17T10:24:17.532Z,100716.53
2023-03-17T10:26:53.370Z,100720.65
2023-03-17T10:29:24.113Z,100719.80
2023-03-17T10:31:53.444Z,100719.64
2023-03-17T10:34:29.176Z,100722.11
2023-03-17T10:37:09.583Z,100722.02
2023-03-17T10:39:46.951Z,100720.88
2023-03-17T10:42:29.187Z,100722.52
2023-03-17T10:46:27.152Z,100737.01
2023-03-17T10:49:02.266Z,100727.11
2023-03-17T10:51:36.918Z,100732.08
2023-03-17T10:54:15.825Z,100731.98
2023-03-17T10:56:44.065Z,100735.69
2023-03-17T10:59:37.674Z,100734.00
2023-03-17T11:02:12.679Z,100737.52
2023-03-17T11:04:44.180Z,100736.44
2023-03-17T11:07:17.584Z,100743.52
2023-03-17T11:09:50.869Z,100745.90
2023-03-17T11:12:37.907Z,100743.02
2023-03-17T11:15:10.147Z,100742.87
2023-03-17T11:17:47.816Z,100745.11
2023-03-17T11:20:19.132Z,100743.25
2023-03-17T11:23:05.119Z,100746.02
2023-03-17T11:25:34.910Z,100746.26
2023-03-17T11:28:16.985Z,100748.39
2023-03-17T11:31:13.183Z,100751.69
2023-03-17T11:34:20.120Z,100752.46
2023-03-17T11:37:13.551Z,100750.55
2023-03-17T11:40:04.167Z,100753.55
2023-03-17T11:42:45.931Z,100752.83
2023-03-17T11:45:27.484Z,100752.70
2023-03-17T11:48:06.726Z,100757.95
2023-03-17T11:50:39.407Z,100760.11
2023-03-17T11:53:31.178Z,100763.40
2023-03-17T11:56:34.057Z,100764.55
2023-03-17T11:59:05.604Z,100765.37
2023-03-17T12:01:45.864Z,100769.36
2023-03-17T12:04:17.121Z,100768.16
2023-03-17T12:06:48.596Z,100767.55
2023-03-17T12:09:20.277Z,100770.01
2023-03-17T12:11:49.170Z,100772.53
2023-03-17T12:14:33.082Z,100776.00
2023-03-17T12:17:26.499Z,100777.52
2023-03-17T12:20:05.971Z,100777.08
2023-03-17T12:22:35.832Z,100783.11
2023-03-17T12:25:21.382Z,100782.88
2023-03-17T12:28:07.013Z,100787.06
2023-03-17T12:30:50.004Z,100790.94
2023-03-17T12:33:22.981Z,100797.98
2023-03-17T12:35:52.167Z,100796.70
2023-03-17T12:38:29.094Z,100791.69
2023-03-17T12:41:20.038Z,100790.53
2023-03-17T12:44:04.471Z,100794.98
2023-03-17T12:46:54.461Z,100798.36
2023-03-17T12:49:48.117Z,100804.22
2023-03-17T12:52:33.815Z,100802.22
2023-03-17T12:55:02.654Z,100804.73
2023-03-17T12:57:38.941Z,100811.81
2023-03-17T13:00:29.762Z,100812.78
2023-03-17T13:03:19.395Z,100807.96
2023-03-17T13:05:50.011Z,100812.83
2023-03-17T13:08:28.594Z,100816.13
2023-03-17T13:11:18.705Z,100817.54
2023-03-17T13:13:49.937Z,100820.90
2023-03-17T13:16:34.133Z,100822.53
2023-03-17T13:19:15.958Z,100821.39
2023-03-17T13:22:00.738Z,100822.59
2023-03-17T13:24:52.942Z,100817.71
2023-03-17T13:27:30.146Z,100823.94
2023-03-17T13:30:37.755Z,100817.23
2023-03-17T13:33:26.281Z,100819.27
2023-03-17T13:36:17.318Z,100826.02
2023-03-17T13:39:15.022Z,100828.37
2023-03-17T13:42:23.344Z,100827.77
2023-03-17T13:45:19.892Z,100827.86
2023-03-17T13:47:48.007Z,100829.54
2023-03-17T13:50:40.070Z,100824.60
2023-03-17T13:53:10.569Z,100828.67
2023-03-17T13:55:42.238Z,100831.37
2023-03-17T13:58:11.981Z,100834.35
2023-03-17T14:00:47.026Z,100838.59
2023-03-17T14:03:19.591Z,100837.15
2023-03-17T14:05:51.188Z,100841.04
2023-03-17T14:08:49.251Z,100842.88
2023-03-17T14:11:38.431Z,100842.58
2023-03-17T14:14:32.068Z,100843.02
2023-03-17T14:17:02.951Z,100845.40
2023-03-17T14:19:32.505Z,100846.04
2023-03-17T14:22:18.505Z,100843.46
2023-03-17T14:24:46.691Z,100843.89
2023-03-17T14:27:15.646Z,100845.72
2023-03-17T14:29:44.831Z,100847.70
2023-03-17T14:32:18.791Z,100852.48
2023-03-17T14:34:53.024Z,100853.05
2023-03-17T14:37:22.228Z,100857.70
2023-03-17T14:39:52.988Z,100858.33
2023-03-17T14:42:27.103Z,100858.14
2023-03-17T14:45:01.586Z,100861.77
2023-03-17T14:47:30.502Z,100865.50
2023-03-17T14:50:02.785Z,100867.20
2023-03-17T14:52:32.697Z,100868.78
2023-03-17T14:55:01.010Z,100869.39
2023-03-17T14:57:32.547Z,100872.17
2023-03-17T15:00:15.857Z,100869.91
2023-03-17T15:02:57.829Z,100873.09
2023-03-17T15:05:37.671Z,100877.38
2023-03-17T15:08:36.154Z,100877.92
2023-03-17T15:11:05.225Z,100881.30
2023-03-17T15:13:37.757Z,100881.17
2023-03-17T15:16:07.518Z,100878.27
2023-03-17T15:18:37.094Z,100879.77
2023-03-17T15:21:05.321Z,100881.48
2023-03-17T15:23:39.322Z,100882.80
2023-03-17T15:26:21.951Z,100885.40
2023-03-17T15:28:50.298Z,100882.73
2023-03-17T15:31:23.586Z,100883.00
2023-03-17T15:33:52.044Z,100885.76
2023-03-17T15:36:32.428Z,100885.79
2023-03-17T15:39:02.365Z,100892.79
2023-03-17T15:41:30.538Z,100893.33
2023-03-17T15:43:58.616Z,100893.57
2023-03-17T15:46:27.969Z,100893.23
2023-03-17T15:48:59.858Z,100894.23
2023-03-17T15:51:34.186Z,100898.54
2023-03-17T15:54:05.930Z,100901.75
2023-03-17T15:56:38.514Z,100908.65
2023-03-17T15:59:06.957Z,100910.79
2023-03-17T16:01:36.663Z,100917.61
2023-03-17T16:04:06.138Z,100918.31
2023-03-17T16:06:35.207Z,100923.04
2023-03-17T16:09:03.742Z,100926.76
2023-03-17T16:11:35.215Z,100931.77
2023-03-17T16:14:07.941Z,100931.63
2023-03-17T16:16:39.985Z,100930.86
2023-03-17T16:19:20.198Z,100931.55
2023-03-17T16:21:49.144Z,100934.55
2023-03-17T16:24:22.862Z,100933.92
2023-03-17T16:26:51.007Z,100936.80
2023-03-17T16:29:21.844Z,100939.05
2023-03-17T16:31:51.048Z,100942.79
2023-03-17T16:34:21.753Z,100944.55
2023-03-17T16:36:51.590Z,100945.73
2023-03-17T16:39:22.633Z,100946.72
2023-03-17T16:41:53.490Z,100952.48
2023-03-17T16:44:22.120Z,100949.69
2023-03-17T16:46:53.696Z,100955.52
2023-03-17T16:49:23.887Z,100953.20
2023-03-17T16:51:51.988Z,100958.52
2023-03-17T16:54:21.680Z,100959.81
2023-03-17T16:56:49.893Z,100958.02
2023-03-17T16:59:20.357Z,100961.20
2023-03-17T17:01:48.514Z,100960.33
2023-03-17T17:04:16.587Z,100969.10
2023-03-17T17:06:46.573Z,100969.94
2023-03-17T17:09:16.768Z,100972.05
2023-03-17T17:11:44.948Z,100971.13
2023-03-17T17:14:13.508Z,100974.77
2023-03-17T17:16:42.116Z,100975.46
2023-03-17T17:19:16.712Z,100977.42
2023-03-17T17:21:45.368Z,100975.73
2023-03-17T17:24:13.927Z,100981.55
2023-03-17T17:26:42.874Z,100983.47
2023-03-17T17:29:12.217Z,100981.77
2023-03-17T17:31:41.090Z,100978.41
2023-03-17T17:34:09.808Z,100981.87
2023-03-17T17:36:38.073Z,100981.52
2023-03-17T17:39:07.309Z,100983.91
2023-03-17T17:41:36.612Z,100983.35
2023-03-17T17:44:05.679Z,100982.33
2023-03-17T17:46:34.406Z,100978.46
2023-03-17T17:49:02.502Z,100983.39
2023-03-17T17:51:35.411Z,100983.45
2023-03-17T17:54:04.396Z,100990.30
2023-03-17T17:56:37.103Z,100992.20
2023-03-17T17:59:05.639Z,100985.90
2023-03-17T18:01:35.320Z,100991.77
2023-03-17T18:04:03.516Z,100990.13
2023-03-17T18:06:31.807Z,100991.67
2023-03-17T18:09:00.146Z,100993.36
2023-03-17T18:11:33.098Z,100995.23
2023-03-17T18:14:04.765Z,100998.02
2023-03-17T18:16:33.163Z,100998.15
2023-03-17T18:19:02.567Z,100997.48
2023-03-17T18:21:32.681Z,100998.20
2023-03-17T18:24:01.054Z,101002.63
2023-03-17T18:26:30.383Z,101003.27
2023-03-17T18:28:59.100Z,101007.46
2023-03-17T18:31:54.093Z,101009.21
2023-03-17T18:34:26.171Z,101007.87
2023-03-17T18:36:59.786Z,101009.86
2023-03-17T18:39:27.934Z,101009.23
2023-03-17T18:41:56.664Z,101008.61
2023-03-17T18:44:29.895Z,101007.73
2023-03-17T18:46:58.426Z,101010.30
2023-03-17T18:49:28.407Z,101008.57
2023-03-17T18:51:57.003Z,101010.61
2023-03-17T18:54:25.313Z,101014.63
2023-03-17T18:56:56.774Z,101017.91
2023-03-17T18:59:25.655Z,101019.59
2023-03-17T19:01:59.894Z,101024.14
2023-03-17T19:04:27.907Z,101023.40
2023-03-17T19:06:56.602Z,101022.04
2023-03-17T19:09:26.126Z,101021.13
2023-03-17T19:11:57.551Z,101021.00
2023-03-17T19:14:26.218Z,101022.94
2023-03-17T19:16:54.577Z,101026.77
2023-03-17T19:19:24.356Z,101026.04
2023-03-17T19:21:52.882Z,101023.54
2023-03-17T19:24:21.170Z,101025.27
2023-03-17T19:26:49.979Z,101022.86
2023-03-17T19:29:22.651Z,101022.74
2023-03-17T19:31:50.834Z,101020.69
2023-03-17T19:34:18.877Z,101023.29
2023-03-17T19:36:47.504Z,101027.86
2023-03-17T19:39:16.795Z,101027.54
2023-03-17T19:41:45.076Z,101027.00
2023-03-17T19:44:14.692Z,101028.23
2023-03-17T19:46:42.799Z,101025.64
2023-03-17T19:49:12.457Z,101024.27
2023-03-17T19:51:42.003Z,101025.65
2023-03-17T19:54:12.513Z,101022.64
2023-03-17T19:56:42.651Z,101024.14
2023-03-17T19:59:12.868Z,101023.76
2023-03-17T20:01:42.510Z,101022.58
2023-03-17T20:04:14.279Z,101022.80
2023-03-17T20:06:46.816Z,101019.70
2023-03-17T20:09:15.418Z,101016.34
2023-03-17T20:11:43.400Z,101013.32
2023-03-17T20:14:11.507Z,101011.10
2023-03-17T20:16:41.431Z,101016.23
2023-03-17T20:19:10.010Z,101014.98
2023-03-17T20:21:40.253Z,101022.56
2023-03-17T20:24:11.060Z,101020.94
2023-03-17T20:26:41.705Z,101025.64
2023-03-17T20:29:12.683Z,101022.33
2023-03-17T20:31:41.206Z,101025.08
2023-03-17T20:34:10.187Z,101026.16
2023-03-17T20:36:42.535Z,101027.38
2023-03-17T20:39:14.873Z,101024.04
2023-03-17T20:41:43.281Z,101024.16
2023-03-17T20:44:12.346Z,101018.86
2023-03-17T20:46:42.422Z,101018.73
2023-03-17T20:49:12.373Z,101015.02
2023-03-17T20:51:44.386Z,101015.53
2023-03-17T20:54:12.898Z,101016.11
2023-03-17T20:56:41.368Z,101006.36
2023-03-17T20:59:10.906Z,101016.27
2023-03-17T21:01:40.349Z,101011.08
2023-03-17T21:04:09.333Z,101009.85
2023-03-17T21:06:38.508Z,101012.17
2023-03-17T21:09:06.647Z,101006.20
2023-03-17T21:11:38.935Z,101007.72
2023-03-17T21:14:08.058Z,101011.37
2023-03-17T21:16:36.323Z,101019.73
2023-03-17T21:19:07.997Z,101020.64
2023-03-17T21:21:40.158Z,101022.38
2023-03-17T21:24:24.430Z,101020.23
2023-03-17T21:26:53.415Z,101018.36
2023-03-17T21:29:22.817Z,101020.17
2023-03-17T21:31:58.672Z,101024.68
2023-03-17T21:34:34.606Z,101026.25
2023-03-17T21:37:02.633Z,101033.00
2023-03-17T21:39:32.904Z,101034.39
2023-03-17T21:42:02.147Z,101036.63
2023-03-17T21:44:38.473Z,101040.70
2023-03-17T21:47:07.730Z,101035.71
2023-03-17T21:49:35.998Z,101034.23
2023-03-17T21:52:04.589Z,101039.57
2023-03-17T21:54:35.091Z,101040.96
2023-03-17T21:57:03.713Z,101046.98
2023-03-17T21:59:34.556Z,101044.61
2023-03-17T22:02:02.997Z,101049.24
2023-03-17T22:04:32.484Z,101046.68
2023-03-17T22:07:00.896Z,101044.72
2023-03-17T22:09:29.393Z,101043.48
2023-03-17T22:11:58.494Z,101039.08
2023-03-17T22:14:27.567Z,101039.41
2023-03-17T22:16:57.365Z,101038.64
2023-03-17T22:19:25.773Z,101039.40
2023-03-17T22:21:54.853Z,101042.76
2023-03-17T22:24:26.018Z,101040.11
2023-03-17T22:26:55.916Z,101039.13
2023-03-17T22:29:26.450Z,101036.28
2023-03-17T22:31:54.676Z,101039.95
2023-03-17T22:34:23.426Z,101045.18
2023-03-17T22:36:51.609Z,101044.27
2023-03-17T22:39:20.491Z,101045.03
2023-03-17T22:41:54.800Z,101043.89
2023-03-17T22:44:23.068Z,101047.72
2023-03-17T22:46:51.218Z,101042.80
2023-03-17T22:49:19.188Z,101042.17
2023-03-17T22:51:48.300Z,101044.52
2023-03-17T22:54:18.862Z,101042.22
2023-03-17T22:56:48.579Z,101046.66
2023-03-17T22:59:16.516Z,101045.13
2023-03-17T23:03:35.033Z,101058.52
2023-03-17T23:06:04.092Z,101049.88
2023-03-17T23:08:35.287Z,101048.56
2023-03-17T23:11:07.498Z,101051.83
2023-03-17T23:13:36.842Z,101051.02
2023-03-17T23:16:06.664Z,101055.05
2023-03-17T23:18:43.301Z,101051.60
2023-03-17T23:21:23.479Z,101050.08
2023-03-17T23:23:51.490Z,101048.52
2023-03-17T23:26:19.511Z,101045.28
2023-03-17T23:28:47.994Z,101046.94
2023-03-17T23:31:16.827Z,101047.18
2023-03-17T23:33:47.361Z,101045.15
2023-03-17T23:36:17.083Z,101042.70
2023-03-17T23:38:49.210Z,101045.80
2023-03-17T23:41:18.585Z,101049.23
2023-03-17T23:43:46.945Z,101051.29
2023-03-17T23:46:15.573Z,101053.75
2023-03-17T23:48:44.697Z,101051.77
2023-03-17T23:51:14.507Z,101051.06
2023-03-17T23:53:43.205Z,101046.73
2023-03-17T23:56:13.393Z,101051.06
2023-03-17T23:58:43.730Z,101051.85
